createdAt,value
2018-07-19T00:01:05.919Z,19.90
2018-07-19T00:03:38.331Z,20.00
2018-07-19T00:06:10.744Z,19.90
2018-07-19T00:08:44.949Z,19.90
2018-07-19T00:11:17.377Z,19.90
2018-07-19T00:13:49.851Z,19.90
2018-07-19T00:16:22.507Z,19.90
2018-07-19T00:18:54.918Z,19.90
2018-07-19T00:21:27.342Z,19.90
2018-07-19T00:23:59.712Z,19.80
2018-07-19T00:26:32.454Z,19.70
2018-07-19T00:29:04.949Z,19.80
2018-07-19T00:31:37.386Z,19.80
2018-07-19T00:34:09.802Z,19.70
2018-07-19T00:36:42.199Z,19.70
2018-07-19T00:39:14.603Z,19.70
2018-07-19T00:44:19.421Z,19.60
2018-07-19T00:46:51.821Z,19.60
2018-07-19T00:49:24.268Z,19.50
2018-07-19T00:51:56.911Z,19.60
2018-07-19T00:54:29.298Z,19.50
2018-07-19T00:57:01.706Z,19.50
2018-07-19T00:59:34.149Z,19.40
2018-07-19T01:02:07.060Z,19.40
2018-07-19T01:04:39.435Z,19.40
2018-07-19T01:07:11.872Z,19.30
2018-07-19T01:09:44.381Z,19.30
2018-07-19T01:12:16.933Z,19.30
2018-07-19T01:14:49.359Z,19.20
2018-07-19T01:19:54.323Z,19.20
2018-07-19T01:22:26.744Z,19.20
2018-07-19T01:24:59.142Z,19.10
2018-07-19T01:27:31.524Z,19.20
2018-07-19T01:30:04.591Z,19.20
2018-07-19T01:32:37.069Z,19.10
2018-07-19T01:35:09.590Z,19.00
2018-07-19T01:40:14.455Z,19.00
2018-07-19T01:42:47.198Z,18.90
2018-07-19T01:45:19.878Z,19.00
2018-07-19T01:47:52.229Z,19.00
2018-07-19T01:50:24.682Z,18.90
2018-07-19T01:52:57.082Z,18.90
2018-07-19T01:55:29.533Z,18.90
2018-07-19T01:58:01.969Z,18.90
2018-07-19T02:00:34.376Z,18.80
2018-07-19T02:03:06.765Z,18.80
2018-07-19T02:05:39.177Z,18.80
2018-07-19T02:08:11.596Z,18.80
2018-07-19T02:10:44.702Z,18.70
2018-07-19T02:13:17.069Z,18.70
2018-07-19T02:15:49.521Z,18.60
2018-07-19T02:20:54.489Z,18.60
2018-07-19T02:33:36.542Z,18.30
2018-07-19T02:36:08.978Z,18.30
2018-07-19T02:38:41.394Z,18.30
2018-07-19T02:41:13.817Z,18.20
2018-07-19T02:43:46.228Z,18.20
2018-07-19T02:46:18.820Z,18.20
2018-07-19T02:48:51.310Z,18.20
2018-07-19T02:51:24.689Z,18.10
2018-07-19T02:53:57.141Z,18.10
2018-07-19T02:56:29.552Z,18.20
2018-07-19T02:59:02.232Z,18.10
2018-07-19T03:01:34.755Z,18.20
2018-07-19T03:04:07.245Z,18.20
2018-07-19T03:11:44.560Z,17.80
2018-07-19T03:14:16.991Z,17.90
2018-07-19T03:16:49.622Z,17.90
2018-07-19T03:19:22.030Z,18.20
2018-07-19T03:21:54.529Z,17.90
2018-07-19T03:26:59.484Z,17.70
2018-07-19T03:29:31.920Z,17.70
2018-07-19T03:32:04.491Z,17.70
2018-07-19T03:34:36.868Z,17.80
2018-07-19T03:37:09.330Z,17.60
2018-07-19T03:39:41.722Z,17.60
2018-07-19T03:42:14.151Z,17.60
2018-07-19T03:44:46.508Z,17.70
2018-07-19T03:47:18.932Z,17.60
2018-07-19T03:49:51.546Z,17.60
2018-07-19T03:52:24.546Z,17.50
2018-07-19T03:57:29.798Z,17.40
2018-07-19T04:00:02.283Z,17.50
2018-07-19T04:02:34.678Z,17.60
2018-07-19T04:05:07.113Z,17.50
2018-07-19T04:07:39.522Z,17.50
2018-07-19T04:10:11.896Z,17.60
2018-07-19T04:12:46.088Z,17.60
2018-07-19T04:15:18.515Z,17.60
2018-07-19T04:17:56.528Z,17.60
2018-07-19T04:20:30.975Z,17.60
2018-07-19T04:23:03.726Z,17.50
2018-07-19T04:25:36.453Z,17.60
2018-07-19T04:28:09.013Z,17.60
2018-07-19T04:30:41.848Z,17.60
2018-07-19T04:33:14.715Z,17.60
2018-07-19T04:35:47.402Z,17.70
2018-07-19T04:38:20.156Z,17.70
2018-07-19T04:40:52.786Z,17.70
2018-07-19T04:43:25.318Z,17.70
2018-07-19T04:45:58.189Z,17.80
2018-07-19T04:48:31.040Z,18.00
2018-07-19T04:51:03.503Z,18.00
2018-07-19T04:53:36.263Z,18.00
2018-07-19T04:56:08.780Z,17.90
2018-07-19T04:58:41.188Z,18.00
2018-07-19T05:01:13.674Z,18.00
2018-07-19T05:08:52.393Z,18.10
2018-07-19T05:11:24.963Z,18.20
2018-07-19T05:13:57.393Z,18.20
2018-07-19T05:16:29.800Z,18.20
2018-07-19T05:19:02.809Z,18.30
2018-07-19T05:21:35.368Z,18.40
2018-07-19T05:24:08.134Z,18.40
2018-07-19T05:26:40.551Z,18.40
2018-07-19T05:29:12.991Z,18.50
2018-07-19T05:31:45.390Z,18.60
2018-07-19T05:34:17.958Z,18.70
2018-07-19T05:36:50.599Z,18.80
2018-07-19T05:44:28.205Z,18.80
2018-07-19T05:47:00.712Z,18.80
2018-07-19T05:57:10.797Z,19.10
2018-07-19T05:59:43.209Z,19.30
2018-07-19T06:02:15.628Z,19.40
2018-07-19T06:04:48.069Z,19.50
2018-07-19T06:07:20.512Z,19.40
2018-07-19T06:09:52.950Z,19.40
2018-07-19T06:12:25.391Z,19.30
2018-07-19T06:14:58.108Z,19.20
2018-07-19T06:17:30.942Z,19.20
2018-07-19T06:20:04.062Z,19.30
2018-07-19T06:22:36.893Z,19.40
2018-07-19T06:25:09.346Z,19.40
2018-07-19T06:27:42.015Z,19.40
2018-07-19T06:30:14.464Z,19.60
2018-07-19T06:32:46.990Z,19.70
2018-07-19T06:35:19.817Z,19.60
2018-07-19T06:37:52.545Z,19.70
2018-07-19T06:40:25.685Z,19.70
2018-07-19T06:42:58.849Z,19.80
2018-07-19T06:45:31.617Z,19.90
2018-07-19T06:48:04.373Z,20.00
2018-07-19T06:50:36.878Z,20.10
2018-07-19T06:53:09.305Z,20.20
2018-07-19T06:55:41.816Z,20.10
2018-07-19T06:58:14.583Z,20.30
2018-07-19T07:00:47.094Z,20.20
2018-07-19T07:03:19.522Z,20.10
2018-07-19T07:05:51.957Z,20.10
2018-07-19T07:08:24.485Z,20.20
2018-07-19T07:10:57.011Z,20.30
2018-07-19T07:13:29.542Z,20.10
2018-07-19T07:16:02.261Z,20.30
2018-07-19T07:18:34.724Z,20.20
2018-07-19T07:21:07.285Z,20.10
2018-07-19T07:23:39.676Z,20.10
2018-07-19T07:26:12.274Z,20.10
2018-07-19T07:28:44.766Z,20.20
2018-07-19T07:31:17.186Z,20.30
2018-07-19T07:33:49.806Z,20.30
2018-07-19T07:36:22.344Z,20.30
2018-07-19T07:38:54.788Z,20.40
2018-07-19T07:41:27.213Z,20.40
2018-07-19T07:43:59.717Z,20.50
2018-07-19T07:46:32.150Z,20.40
2018-07-19T07:49:04.822Z,20.50
2018-07-19T07:51:37.266Z,20.60
2018-07-19T07:54:09.937Z,20.70
2018-07-19T07:56:42.418Z,20.60
2018-07-19T07:59:15.250Z,20.70
2018-07-19T08:01:47.840Z,20.80
2018-07-19T08:04:20.660Z,20.80
2018-07-19T08:06:53.491Z,20.70
2018-07-19T08:09:26.413Z,20.70
2018-07-19T08:11:59.416Z,20.70
2018-07-19T08:17:05.369Z,20.80
2018-07-19T08:19:38.019Z,20.70
2018-07-19T08:24:43.600Z,20.80
2018-07-19T08:27:16.120Z,20.80
2018-07-19T08:29:48.586Z,20.80
2018-07-19T08:32:21.053Z,20.80
2018-07-19T08:34:53.534Z,20.70
2018-07-19T08:37:26.042Z,20.60
2018-07-19T08:39:58.603Z,20.80
2018-07-19T08:42:31.027Z,20.70
2018-07-19T08:45:04.051Z,20.60
2018-07-19T08:47:36.512Z,20.70
2018-07-19T08:50:08.987Z,20.70
2018-07-19T08:52:41.497Z,20.70
2018-07-19T08:55:13.943Z,20.60
2018-07-19T08:57:47.974Z,20.50
2018-07-19T09:00:20.470Z,20.60
2018-07-19T09:02:52.951Z,20.50
2018-07-19T09:05:25.599Z,20.60
2018-07-19T09:07:58.000Z,20.60
2018-07-19T09:10:30.492Z,20.60
2018-07-19T09:13:03.074Z,20.60
2018-07-19T09:18:08.017Z,20.60
2018-07-19T09:20:40.465Z,20.70
2018-07-19T09:23:12.964Z,20.70
2018-07-19T09:25:45.634Z,20.80
2018-07-19T09:28:18.091Z,20.90
2018-07-19T09:30:50.755Z,20.90
2018-07-19T09:33:23.246Z,20.80
2018-07-19T09:35:55.711Z,20.80
2018-07-19T09:38:28.281Z,20.80
2018-07-19T09:41:00.684Z,20.80
2018-07-19T09:43:33.192Z,20.90
2018-07-19T09:48:38.104Z,21.10
2018-07-19T09:51:10.601Z,21.00
2018-07-19T09:53:43.103Z,20.90
2018-07-19T09:56:15.562Z,21.00
2018-07-19T09:58:48.057Z,21.00
2018-07-19T10:01:21.168Z,21.00
2018-07-19T10:03:53.842Z,21.00
2018-07-19T10:06:26.336Z,21.10
2018-07-19T10:08:58.895Z,21.20
2018-07-19T10:11:31.599Z,21.40
2018-07-19T10:14:04.123Z,21.50
2018-07-19T10:16:36.862Z,21.50
2018-07-19T10:19:09.351Z,21.40
2018-07-19T10:21:41.818Z,21.30
2018-07-19T10:24:14.291Z,21.40
2018-07-19T10:26:46.812Z,21.50
2018-07-19T10:29:19.239Z,21.70
2018-07-19T10:34:24.326Z,21.60
2018-07-19T10:36:57.017Z,21.50
2018-07-19T10:39:29.544Z,21.50
2018-07-19T10:42:02.021Z,21.60
2018-07-19T10:44:34.466Z,21.60
2018-07-19T10:47:06.922Z,21.70
2018-07-19T10:49:39.488Z,21.80
2018-07-19T10:52:11.947Z,21.90
2018-07-19T10:54:44.455Z,21.90
2018-07-19T10:57:17.360Z,22.00
2018-07-19T11:04:55.017Z,22.50
2018-07-19T11:07:27.496Z,22.30
2018-07-19T11:10:00.088Z,22.30
2018-07-19T11:12:32.564Z,22.10
2018-07-19T11:15:05.175Z,22.20
2018-07-19T11:17:37.576Z,22.40
2018-07-19T11:20:10.132Z,22.40
2018-07-19T11:22:42.766Z,22.40
2018-07-19T11:25:15.194Z,22.20
2018-07-19T11:27:47.613Z,22.20
2018-07-19T11:30:20.038Z,22.20
2018-07-19T11:32:52.439Z,22.20
2018-07-19T11:35:24.847Z,22.30
2018-07-19T11:37:57.282Z,22.30
2018-07-19T11:40:29.760Z,22.30
2018-07-19T11:43:02.237Z,22.30
2018-07-19T11:45:34.948Z,22.40
2018-07-19T11:48:07.328Z,22.50
2018-07-19T11:50:39.810Z,22.50
2018-07-19T11:53:12.313Z,22.60
2018-07-19T11:55:44.757Z,22.60
2018-07-19T11:58:17.190Z,22.60
2018-07-19T12:00:50.657Z,22.50
2018-07-19T12:03:22.991Z,22.60
2018-07-19T12:05:55.453Z,22.70
2018-07-19T12:08:27.840Z,22.70
2018-07-19T12:11:00.310Z,22.40
2018-07-19T12:13:32.723Z,22.30
2018-07-19T12:16:05.235Z,22.10
2018-07-19T12:18:37.635Z,22.10
2018-07-19T12:21:10.131Z,22.20
2018-07-19T12:23:42.515Z,22.00
2018-07-19T12:26:15.111Z,22.00
2018-07-19T12:28:47.553Z,22.00
2018-07-19T12:31:20.086Z,22.10
2018-07-19T12:33:52.462Z,22.30
2018-07-19T12:36:24.943Z,22.40
2018-07-19T12:38:57.439Z,22.20
2018-07-19T12:41:29.966Z,22.30
2018-07-19T12:44:02.441Z,22.30
2018-07-19T12:46:34.947Z,22.20
2018-07-19T12:49:07.710Z,22.20
2018-07-19T12:51:40.130Z,22.30
2018-07-19T12:54:12.622Z,22.30
2018-07-19T12:56:45.105Z,22.30
2018-07-19T12:59:18.521Z,22.40
2018-07-19T13:01:51.151Z,22.20
2018-07-19T13:04:23.865Z,22.30
2018-07-19T13:06:56.336Z,22.30
2018-07-19T13:09:28.935Z,22.40
2018-07-19T13:12:01.563Z,22.40
2018-07-19T13:14:34.083Z,22.30
2018-07-19T13:17:07.562Z,22.30
2018-07-19T13:19:40.177Z,22.40
2018-07-19T13:22:13.294Z,22.40
2018-07-19T13:24:45.808Z,22.40
2018-07-19T13:27:18.197Z,22.40
2018-07-19T13:29:50.663Z,22.40
2018-07-19T13:32:23.091Z,22.60
2018-07-19T13:34:55.595Z,22.70
2018-07-19T13:40:00.514Z,22.90
2018-07-19T13:42:33.024Z,22.90
2018-07-19T13:45:05.550Z,22.70
2018-07-19T13:47:38.538Z,22.80
2018-07-19T13:50:11.012Z,23.00
2018-07-19T13:52:55.030Z,23.30
2018-07-19T13:55:27.651Z,23.30
2018-07-19T13:58:00.950Z,23.30
2018-07-19T14:00:33.362Z,23.20
2018-07-19T14:03:05.837Z,23.20
2018-07-19T14:05:38.304Z,23.30
2018-07-19T14:08:10.874Z,23.50
2018-07-19T14:10:44.968Z,23.50
2018-07-19T14:13:17.828Z,23.60
2018-07-19T14:15:51.094Z,23.80
2018-07-19T14:18:23.720Z,23.90
2018-07-19T14:20:56.369Z,23.90
2018-07-19T14:26:05.067Z,24.10
2018-07-19T14:28:37.479Z,24.30
2018-07-19T14:31:10.165Z,24.60
2018-07-19T14:33:43.455Z,24.80
2018-07-19T14:36:15.914Z,24.80
2018-07-19T14:38:48.604Z,25.00
2018-07-19T14:41:21.142Z,24.90
2018-07-19T14:43:53.718Z,25.00
2018-07-19T14:46:27.021Z,24.90
2018-07-19T14:48:59.486Z,24.90
2018-07-19T14:51:32.000Z,24.90
2018-07-19T14:54:04.980Z,24.80
2018-07-19T14:56:37.426Z,24.70
2018-07-19T14:59:10.063Z,24.60
2018-07-19T15:01:42.882Z,24.70
2018-07-19T15:04:16.422Z,24.50
2018-07-19T15:06:48.970Z,24.50
2018-07-19T15:09:21.424Z,24.50
2018-07-19T15:11:53.920Z,24.60
2018-07-19T15:14:26.420Z,24.80
2018-07-19T15:16:58.931Z,25.20
2018-07-19T15:19:31.594Z,25.30
2018-07-19T15:22:04.193Z,25.30
2018-07-19T15:27:09.231Z,25.80
2018-07-19T15:29:41.679Z,25.80
2018-07-19T15:32:14.178Z,25.60
2018-07-19T15:34:46.900Z,25.50
2018-07-19T15:37:19.775Z,25.20
2018-07-19T15:39:52.189Z,25.30
2018-07-19T15:42:24.659Z,25.60
2018-07-19T15:44:57.087Z,25.60
2018-07-19T15:47:29.519Z,25.70
2018-07-19T15:50:02.031Z,25.80
2018-07-19T15:52:34.483Z,25.80
2018-07-19T15:55:07.021Z,26.00
2018-07-19T15:57:39.538Z,26.10
2018-07-19T16:00:12.155Z,25.90
2018-07-19T16:02:44.705Z,25.90
2018-07-19T16:05:17.228Z,25.90
2018-07-19T16:07:49.682Z,26.10
2018-07-19T16:10:22.150Z,26.30
2018-07-19T16:12:55.030Z,26.40
2018-07-19T16:15:27.425Z,26.70
2018-07-19T16:17:59.904Z,26.80
2018-07-19T16:20:32.596Z,26.60
2018-07-19T16:23:05.014Z,26.10
2018-07-19T16:25:38.567Z,25.80
2018-07-19T16:28:11.042Z,25.80
2018-07-19T16:30:43.519Z,25.60
2018-07-19T16:33:15.931Z,25.60
2018-07-19T16:35:48.418Z,25.70
2018-07-19T16:38:21.010Z,25.50
2018-07-19T16:40:53.541Z,25.30
2018-07-19T16:43:26.033Z,25.40
2018-07-19T16:45:59.674Z,25.40
2018-07-19T16:48:32.160Z,25.30
2018-07-19T16:51:04.728Z,25.20
2018-07-19T16:53:37.214Z,25.20
2018-07-19T16:58:42.057Z,25.30
2018-07-19T17:01:14.875Z,25.40
2018-07-19T17:03:47.360Z,25.30
2018-07-19T17:06:20.020Z,25.30
2018-07-19T17:08:52.477Z,25.30
2018-07-19T17:11:24.978Z,25.30
2018-07-19T17:13:57.428Z,25.30
2018-07-19T17:16:30.202Z,25.30
2018-07-19T17:19:03.386Z,25.20
2018-07-19T17:21:37.882Z,25.00
2018-07-19T17:24:10.352Z,25.00
2018-07-19T17:26:42.927Z,25.00
2018-07-19T17:29:15.795Z,24.80
2018-07-19T17:31:48.413Z,24.80
2018-07-19T17:34:20.990Z,24.80
2018-07-19T17:36:53.667Z,24.70
2018-07-19T17:39:26.412Z,24.70
2018-07-19T17:41:59.016Z,24.80
2018-07-19T17:44:31.574Z,24.80
2018-07-19T17:47:04.478Z,24.60
2018-07-19T17:49:37.167Z,24.60
2018-07-19T17:52:09.690Z,24.60
2018-07-19T17:54:42.470Z,24.60
2018-07-19T17:57:14.967Z,24.50
2018-07-19T17:59:47.444Z,24.40
2018-07-19T18:02:20.036Z,24.30
2018-07-19T18:07:25.717Z,24.20
2018-07-19T18:09:58.605Z,24.20
2018-07-19T18:12:31.216Z,24.20
2018-07-19T18:15:04.266Z,24.10
2018-07-19T18:17:36.997Z,24.10
2018-07-19T18:20:09.751Z,24.00
2018-07-19T18:22:42.770Z,23.90
2018-07-19T18:25:15.326Z,23.90
2018-07-19T18:27:48.831Z,23.80
2018-07-19T18:30:21.467Z,23.80
2018-07-19T18:32:54.381Z,23.70
2018-07-19T18:35:27.171Z,23.70
2018-07-19T18:38:00.032Z,23.60
2018-07-19T18:40:32.691Z,23.60
2018-07-19T18:43:06.965Z,23.50
2018-07-19T18:45:39.791Z,23.50
2018-07-19T18:48:12.526Z,23.40
2018-07-19T18:53:19.836Z,23.30
2018-07-19T18:55:52.350Z,23.20
2018-07-19T19:00:58.777Z,23.10
2018-07-19T19:06:04.766Z,23.00
2018-07-19T19:08:37.469Z,22.90
2018-07-19T19:11:10.875Z,22.90
2018-07-19T19:13:45.162Z,22.80
2018-07-19T19:16:17.810Z,22.70
2018-07-19T19:18:50.509Z,22.60
2018-07-19T19:21:23.365Z,22.60
2018-07-19T19:23:56.444Z,22.50
2018-07-19T19:26:29.417Z,22.50
2018-07-19T19:29:02.217Z,22.50
2018-07-19T19:31:35.015Z,22.40
2018-07-19T19:34:08.325Z,22.30
2018-07-19T19:39:13.783Z,22.20
2018-07-19T19:41:46.515Z,22.10
2018-07-19T19:44:18.977Z,22.10
2018-07-19T19:46:51.548Z,22.10
2018-07-19T19:49:24.492Z,22.00
2018-07-19T19:51:57.226Z,21.90
2018-07-19T19:54:29.801Z,21.90
2018-07-19T19:57:02.452Z,21.80
2018-07-19T19:59:35.078Z,21.70
2018-07-19T20:02:08.036Z,21.60
2018-07-19T20:04:40.757Z,21.50
2018-07-19T20:07:13.949Z,21.50
2018-07-19T20:09:46.865Z,21.50
2018-07-19T20:12:19.525Z,21.40
2018-07-19T20:14:52.327Z,21.30
2018-07-19T20:17:25.107Z,21.30
2018-07-19T20:19:57.866Z,21.20
2018-07-19T20:22:30.576Z,21.20
2018-07-19T20:25:03.341Z,21.10
2018-07-19T20:30:08.858Z,21.10
2018-07-19T20:35:14.363Z,21.00
2018-07-19T20:37:47.199Z,20.80
2018-07-19T20:42:52.636Z,20.80
2018-07-19T20:45:25.350Z,20.60
2018-07-19T20:50:30.788Z,20.60
2018-07-19T20:53:03.644Z,20.60
2018-07-19T20:55:36.620Z,20.50
2018-07-19T20:58:09.308Z,20.50
2018-07-19T21:00:41.910Z,20.50
2018-07-19T21:03:14.733Z,20.40
2018-07-19T21:05:47.328Z,20.30
2018-07-19T21:08:20.289Z,20.30
2018-07-19T21:10:53.012Z,20.30
2018-07-19T21:13:25.776Z,20.20
2018-07-19T21:15:58.578Z,20.10
2018-07-19T21:18:31.436Z,20.10
2018-07-19T21:21:04.387Z,20.10
2018-07-19T21:23:37.243Z,20.10
2018-07-19T21:26:10.047Z,20.00
2018-07-19T21:31:15.656Z,20.00
2018-07-19T21:36:21.018Z,19.90
2018-07-19T21:38:53.727Z,19.80
2018-07-19T21:41:26.274Z,19.80
2018-07-19T21:43:59.025Z,19.80
2018-07-19T21:46:31.719Z,19.70
2018-07-19T21:49:05.005Z,19.70
2018-07-19T21:51:37.696Z,19.60
2018-07-19T21:54:10.417Z,19.60
2018-07-19T21:56:43.062Z,19.50
2018-07-19T21:59:16.143Z,19.50
2018-07-19T22:01:48.760Z,19.50
2018-07-19T22:04:21.678Z,19.50
2018-07-19T22:06:54.550Z,19.30
2018-07-19T22:09:27.338Z,19.30
2018-07-19T22:12:00.278Z,19.30
2018-07-19T22:14:32.855Z,19.20
2018-07-19T22:17:05.804Z,19.20
2018-07-19T22:19:38.427Z,19.20
2018-07-19T22:22:11.135Z,19.10
2018-07-19T22:24:44.163Z,19.10
2018-07-19T22:27:17.034Z,19.10
2018-07-19T22:29:49.880Z,19.10
2018-07-19T22:32:22.818Z,19.20
2018-07-19T22:34:55.971Z,19.10
2018-07-19T22:37:28.760Z,19.10
2018-07-19T22:40:02.398Z,18.90
2018-07-19T22:42:55.813Z,18.90
2018-07-19T22:45:30.883Z,18.90
2018-07-19T22:48:03.892Z,18.90
2018-07-19T22:50:38.107Z,18.90
2018-07-19T22:53:11.638Z,18.90
2018-07-19T22:55:44.550Z,18.90
2018-07-19T22:58:17.342Z,18.90
2018-07-19T23:00:50.264Z,18.70
2018-07-19T23:03:23.138Z,18.70
2018-07-19T23:05:57.756Z,18.70
2018-07-19T23:08:30.638Z,18.60
2018-07-19T23:16:09.073Z,18.60
2018-07-19T23:18:41.922Z,18.50
2018-07-19T23:21:14.928Z,18.50
2018-07-19T23:23:47.557Z,18.60
2018-07-19T23:26:20.377Z,18.50
2018-07-19T23:28:53.272Z,18.50
2018-07-19T23:31:26.077Z,18.40
2018-07-19T23:44:30.466Z,18.30
2018-07-19T23:47:07.385Z,18.30
